createdAt,value
2022-10-22T00:10:47.910Z,14.25
2022-10-22T00:40:52.592Z,14.40
2022-10-22T01:11:04.067Z,14.40
2022-10-22T01:41:08.411Z,13.26
2022-10-22T02:41:50.672Z,13.54
2022-10-22T03:11:54.784Z,13.78
2022-10-22T03:41:59.068Z,13.84
2022-10-22T04:12:05.476Z,13.76
2022-10-22T04:42:09.906Z,13.89
2022-10-22T05:12:14.367Z,13.72
2022-10-22T05:42:18.503Z,13.42
2022-10-22T06:12:22.623Z,13.34
2022-10-22T06:42:26.740Z,13.29
2022-10-22T07:12:30.845Z,13.64
2022-10-22T07:42:35.031Z,13.76
2022-10-22T08:12:39.464Z,14.54
2022-10-22T08:43:14.687Z,16.71
2022-10-22T09:13:21.495Z,17.08
2022-10-22T09:43:25.702Z,19.77
2022-10-22T10:13:39.309Z,19.69
2022-10-22T10:43:51.925Z,21.73
2022-10-22T11:14:00.530Z,18.29
2022-10-22T11:44:11.050Z,22.61
2022-10-22T12:14:26.539Z,20.34
2022-10-22T12:44:30.736Z,19.71
2022-10-22T13:14:36.171Z,21.92
2022-10-22T13:44:40.259Z,18.26
2022-10-22T14:14:44.854Z,17.79
2022-10-22T14:44:49.100Z,19.51
2022-10-22T15:14:53.226Z,20.88
2022-10-22T15:44:59.690Z,17.46
2022-10-22T16:15:04.106Z,16.75
2022-10-22T16:45:09.510Z,15.74
2022-10-22T17:15:13.885Z,15.21
2022-10-22T17:45:18.068Z,14.77
2022-10-22T18:15:21.998Z,14.24
2022-10-22T18:45:26.425Z,13.88
2022-10-22T19:15:30.576Z,13.94
2022-10-22T20:00:21.306Z,14.00
2022-10-22T20:30:25.727Z,13.71
2022-10-22T21:00:35.605Z,13.42
2022-10-22T21:30:45.599Z,13.16
2022-10-22T22:00:51.771Z,13.02
2022-10-22T22:30:55.880Z,12.72
2022-10-22T23:01:14.216Z,12.47
2022-10-22T23:31:20.117Z,12.13
